sensor_id;sensor_type;location;lat;lon;timestamp;temperature;humidity
34099;DHT22;20374;49.474;10.944;2023-02-12T00:01:34;4.00;99.90
34099;DHT22;20374;49.474;10.944;2023-02-12T00:04:00;4.00;99.90
34099;DHT22;20374;49.474;10.944;2023-02-12T00:06:26;4.10;99.90
34099;DHT22;20374;49.474;10.944;2023-02-12T00:08:54;4.10;99.90
34099;DHT22;20374;49.474;10.944;2023-02-12T00:11:26;4.10;99.90
34099;DHT22;20374;49.474;10.944;2023-02-12T00:13:53;4.10;99.90
34099;DHT22;20374;49.474;10.944;2023-02-12T00:16:25;4.10;99.90
34099;DHT22;20374;49.474;10.944;2023-02-12T00:18:53;4.10;99.90
34099;DHT22;20374;49.474;10.944;2023-02-12T00:21:20;4.10;99.90
34099;DHT22;20374;49.474;10.944;2023-02-12T00:23:46;4.10;99.90
34099;DHT22;20374;49.474;10.944;2023-02-12T00:26:14;4.10;99.90
34099;DHT22;20374;49.474;10.944;2023-02-12T00:28:45;4.10;99.90
34099;DHT22;20374;49.474;10.944;2023-02-12T00:31:17;4.10;99.90
34099;DHT22;20374;49.474;10.944;2023-02-12T00:33:43;4.10;99.90
34099;DHT22;20374;49.474;10.944;2023-02-12T00:36:13;4.20;99.90
34099;DHT22;20374;49.474;10.944;2023-02-12T00:38:40;4.20;99.90
34099;DHT22;20374;49.474;10.944;2023-02-12T00:41:05;4.20;99.90
34099;DHT22;20374;49.474;10.944;2023-02-12T00:43:31;4.20;99.90
34099;DHT22;20374;49.474;10.944;2023-02-12T00:45:59;4.30;99.90
34099;DHT22;20374;49.474;10.944;2023-02-12T00:48:25;4.20;99.90
34099;DHT22;20374;49.474;10.944;2023-02-12T00:50:51;4.30;99.90
34099;DHT22;20374;49.474;10.944;2023-02-12T00:53:17;4.20;99.90
34099;DHT22;20374;49.474;10.944;2023-02-12T00:55:45;4.20;99.90
34099;DHT22;20374;49.474;10.944;2023-02-12T00:58:11;4.20;99.90
34099;DHT22;20374;49.474;10.944;2023-02-12T01:00:37;4.20;99.90
34099;DHT22;20374;49.474;10.944;2023-02-12T01:03:04;4.10;99.90
34099;DHT22;20374;49.474;10.944;2023-02-12T01:05:31;4.10;99.90
34099;DHT22;20374;49.474;10.944;2023-02-12T01:07:57;4.10;99.90
34099;DHT22;20374;49.474;10.944;2023-02-12T01:10:23;4.10;99.90
34099;DHT22;20374;49.474;10.944;2023-02-12T01:12:50;4.10;99.90
34099;DHT22;20374;49.474;10.944;2023-02-12T01:15:17;4.10;99.90
34099;DHT22;20374;49.474;10.944;2023-02-12T01:17:43;4.10;99.90
34099;DHT22;20374;49.474;10.944;2023-02-12T01:20:12;4.20;99.90
34099;DHT22;20374;49.474;10.944;2023-02-12T01:22:38;4.10;99.90
34099;DHT22;20374;49.474;10.944;2023-02-12T01:25:05;4.10;99.90
34099;DHT22;20374;49.474;10.944;2023-02-12T01:27:31;4.10;99.90
34099;DHT22;20374;49.474;10.944;2023-02-12T01:29:57;4.10;99.90
34099;DHT22;20374;49.474;10.944;2023-02-12T01:32:23;4.10;99.90
34099;DHT22;20374;49.474;10.944;2023-02-12T01:34:49;4.10;99.90
34099;DHT22;20374;49.474;10.944;2023-02-12T01:37:15;4.10;99.90
34099;DHT22;20374;49.474;10.944;2023-02-12T01:39:41;4.00;99.90
34099;DHT22;20374;49.474;10.944;2023-02-12T01:42:13;4.00;99.90
34099;DHT22;20374;49.474;10.944;2023-02-12T01:44:45;4.00;99.90
34099;DHT22;20374;49.474;10.944;2023-02-12T01:47:31;4.00;99.90
34099;DHT22;20374;49.474;10.944;2023-02-12T01:49:57;4.00;99.90
34099;DHT22;20374;49.474;10.944;2023-02-12T01:52:26;4.00;99.90
34099;DHT22;20374;49.474;10.944;2023-02-12T01:54:54;4.00;99.90
34099;DHT22;20374;49.474;10.944;2023-02-12T01:57:21;4.00;99.90
34099;DHT22;20374;49.474;10.944;2023-02-12T01:59:51;4.00;99.90
34099;DHT22;20374;49.474;10.944;2023-02-12T02:02:19;3.90;99.90
34099;DHT22;20374;49.474;10.944;2023-02-12T02:04:55;3.90;99.90
34099;DHT22;20374;49.474;10.944;2023-02-12T02:07:22;4.00;99.90
34099;DHT22;20374;49.474;10.944;2023-02-12T02:09:49;4.00;99.90
34099;DHT22;20374;49.474;10.944;2023-02-12T02:12:15;4.10;99.90
34099;DHT22;20374;49.474;10.944;2023-02-12T02:15:00;4.10;99.90
34099;DHT22;20374;49.474;10.944;2023-02-12T02:18:06;4.00;99.90
34099;DHT22;20374;49.474;10.944;2023-02-12T02:31:25;4.10;99.90
34099;DHT22;20374;49.474;10.944;2023-02-12T02:39:42;4.00;99.90
34099;DHT22;20374;49.474;10.944;2023-02-12T02:45:07;4.00;99.90
34099;DHT22;20374;49.474;10.944;2023-02-12T02:48:02;4.00;99.90
34099;DHT22;20374;49.474;10.944;2023-02-12T02:50:29;4.10;99.90
34099;DHT22;20374;49.474;10.944;2023-02-12T02:53:01;4.10;99.90
34099;DHT22;20374;49.474;10.944;2023-02-12T02:55:37;4.10;99.90
34099;DHT22;20374;49.474;10.944;2023-02-12T02:58:23;4.10;99.90
34099;DHT22;20374;49.474;10.944;2023-02-12T03:03:35;4.10;99.90
34099;DHT22;20374;49.474;10.944;2023-02-12T03:06:13;4.10;99.90
34099;DHT22;20374;49.474;10.944;2023-02-12T03:08:48;4.10;99.90
34099;DHT22;20374;49.474;10.944;2023-02-12T03:11:24;4.00;99.90
34099;DHT22;20374;49.474;10.944;2023-02-12T03:14:06;4.00;99.90
34099;DHT22;20374;49.474;10.944;2023-02-12T03:16:40;4.00;99.90
34099;DHT22;20374;49.474;10.944;2023-02-12T03:19:45;3.90;99.90
34099;DHT22;20374;49.474;10.944;2023-02-12T03:22:17;3.90;99.90
34099;DHT22;20374;49.474;10.944;2023-02-12T03:24:57;4.00;99.90
34099;DHT22;20374;49.474;10.944;2023-02-12T03:27:31;3.90;99.90
34099;DHT22;20374;49.474;10.944;2023-02-12T03:29:59;3.90;99.90
34099;DHT22;20374;49.474;10.944;2023-02-12T03:35:07;3.90;99.90
34099;DHT22;20374;49.474;10.944;2023-02-12T03:37:56;4.00;99.90
34099;DHT22;20374;49.474;10.944;2023-02-12T03:40:39;3.80;99.90
34099;DHT22;20374;49.474;10.944;2023-02-12T03:43:22;4.00;99.90
34099;DHT22;20374;49.474;10.944;2023-02-12T03:48:36;4.00;99.90
34099;DHT22;20374;49.474;10.944;2023-02-12T03:51:29;4.00;99.90
34099;DHT22;20374;49.474;10.944;2023-02-12T03:53:57;4.00;99.90
34099;DHT22;20374;49.474;10.944;2023-02-12T03:56:35;4.00;99.90
34099;DHT22;20374;49.474;10.944;2023-02-12T03:59:03;4.00;99.90
34099;DHT22;20374;49.474;10.944;2023-02-12T04:01:31;4.00;99.90
34099;DHT22;20374;49.474;10.944;2023-02-12T04:03:58;4.00;99.90
34099;DHT22;20374;49.474;10.944;2023-02-12T04:06:26;4.10;99.90
34099;DHT22;20374;49.474;10.944;2023-02-12T04:08:56;4.10;99.90
34099;DHT22;20374;49.474;10.944;2023-02-12T04:14:35;4.10;99.90
34099;DHT22;20374;49.474;10.944;2023-02-12T04:22:51;4.00;99.90
34099;DHT22;20374;49.474;10.944;2023-02-12T04:33:09;4.10;99.90
34099;DHT22;20374;49.474;10.944;2023-02-12T04:36:07;4.10;99.90
34099;DHT22;20374;49.474;10.944;2023-02-12T04:38:56;4.10;99.90
34099;DHT22;20374;49.474;10.944;2023-02-12T04:41:24;4.10;99.90
34099;DHT22;20374;49.474;10.944;2023-02-12T04:43:50;4.10;99.90
34099;DHT22;20374;49.474;10.944;2023-02-12T04:46:16;4.10;99.90
34099;DHT22;20374;49.474;10.944;2023-02-12T04:48:57;4.20;99.90
34099;DHT22;20374;49.474;10.944;2023-02-12T04:51:24;4.10;99.90
34099;DHT22;20374;49.474;10.944;2023-02-12T04:53:50;4.10;99.90
34099;DHT22;20374;49.474;10.944;2023-02-12T04:56:16;4.10;99.90
34099;DHT22;20374;49.474;10.944;2023-02-12T04:58:42;4.10;99.90
34099;DHT22;20374;49.474;10.944;2023-02-12T05:01:09;4.10;99.90
34099;DHT22;20374;49.474;10.944;2023-02-12T05:03:36;4.10;99.90
34099;DHT22;20374;49.474;10.944;2023-02-12T05:06:04;4.10;99.90
34099;DHT22;20374;49.474;10.944;2023-02-12T05:08:30;4.10;99.90
34099;DHT22;20374;49.474;10.944;2023-02-12T05:10:56;4.10;99.90
34099;DHT22;20374;49.474;10.944;2023-02-12T05:13:22;4.10;99.90
34099;DHT22;20374;49.474;10.944;2023-02-12T05:15:48;4.10;99.90
34099;DHT22;20374;49.474;10.944;2023-02-12T05:18:14;4.00;99.90
34099;DHT22;20374;49.474;10.944;2023-02-12T05:20:40;4.10;99.90
34099;DHT22;20374;49.474;10.944;2023-02-12T05:23:06;4.00;99.90
34099;DHT22;20374;49.474;10.944;2023-02-12T05:25:32;4.00;99.90
34099;DHT22;20374;49.474;10.944;2023-02-12T05:27:58;4.00;99.90
34099;DHT22;20374;49.474;10.944;2023-02-12T05:30:24;3.90;99.90
34099;DHT22;20374;49.474;10.944;2023-02-12T05:32:50;3.90;99.90
34099;DHT22;20374;49.474;10.944;2023-02-12T05:35:16;3.90;99.90
34099;DHT22;20374;49.474;10.944;2023-02-12T05:37:42;3.90;99.90
34099;DHT22;20374;49.474;10.944;2023-02-12T05:40:08;3.90;99.90
34099;DHT22;20374;49.474;10.944;2023-02-12T05:42:34;3.80;99.90
34099;DHT22;20374;49.474;10.944;2023-02-12T05:45:00;3.80;99.90
34099;DHT22;20374;49.474;10.944;2023-02-12T05:47:27;3.80;99.90
34099;DHT22;20374;49.474;10.944;2023-02-12T05:49:53;3.80;99.90
34099;DHT22;20374;49.474;10.944;2023-02-12T05:52:18;3.90;99.90
34099;DHT22;20374;49.474;10.944;2023-02-12T05:54:47;3.80;99.90
34099;DHT22;20374;49.474;10.944;2023-02-12T05:57:13;3.80;99.90
34099;DHT22;20374;49.474;10.944;2023-02-12T05:59:39;3.80;99.90
34099;DHT22;20374;49.474;10.944;2023-02-12T06:02:05;3.80;99.90
34099;DHT22;20374;49.474;10.944;2023-02-12T06:04:31;3.70;99.90
34099;DHT22;20374;49.474;10.944;2023-02-12T06:06:58;3.70;99.90
34099;DHT22;20374;49.474;10.944;2023-02-12T06:09:24;3.70;99.90
34099;DHT22;20374;49.474;10.944;2023-02-12T06:11:51;3.80;99.90
34099;DHT22;20374;49.474;10.944;2023-02-12T06:14:19;3.70;99.90
34099;DHT22;20374;49.474;10.944;2023-02-12T06:16:49;3.80;99.90
34099;DHT22;20374;49.474;10.944;2023-02-12T06:19:16;3.80;99.90
34099;DHT22;20374;49.474;10.944;2023-02-12T06:21:42;3.80;99.90
34099;DHT22;20374;49.474;10.944;2023-02-12T06:24:11;3.80;99.90
34099;DHT22;20374;49.474;10.944;2023-02-12T06:26:38;3.80;99.90
34099;DHT22;20374;49.474;10.944;2023-02-12T06:29:04;3.70;99.90
34099;DHT22;20374;49.474;10.944;2023-02-12T06:31:33;3.80;99.90
34099;DHT22;20374;49.474;10.944;2023-02-12T06:34:05;3.70;99.90
34099;DHT22;20374;49.474;10.944;2023-02-12T06:36:32;3.70;99.90
34099;DHT22;20374;49.474;10.944;2023-02-12T06:39:00;3.60;99.90
34099;DHT22;20374;49.474;10.944;2023-02-12T06:41:26;3.70;99.90
34099;DHT22;20374;49.474;10.944;2023-02-12T06:43:52;3.70;99.90
34099;DHT22;20374;49.474;10.944;2023-02-12T06:46:19;3.70;99.90
34099;DHT22;20374;49.474;10.944;2023-02-12T06:48:44;3.70;99.90
34099;DHT22;20374;49.474;10.944;2023-02-12T06:51:13;3.70;99.90
34099;DHT22;20374;49.474;10.944;2023-02-12T06:53:39;3.80;99.90
34099;DHT22;20374;49.474;10.944;2023-02-12T06:56:07;3.70;99.90
34099;DHT22;20374;49.474;10.944;2023-02-12T06:58:36;3.70;99.90
34099;DHT22;20374;49.474;10.944;2023-02-12T07:01:11;3.70;99.90
34099;DHT22;20374;49.474;10.944;2023-02-12T07:03:41;3.70;99.90
34099;DHT22;20374;49.474;10.944;2023-02-12T07:06:08;3.80;99.90
34099;DHT22;20374;49.474;10.944;2023-02-12T07:08:34;3.80;99.90
34099;DHT22;20374;49.474;10.944;2023-02-12T07:11:00;3.80;99.90
34099;DHT22;20374;49.474;10.944;2023-02-12T07:13:26;3.80;99.90
34099;DHT22;20374;49.474;10.944;2023-02-12T07:15:52;3.80;99.90
34099;DHT22;20374;49.474;10.944;2023-02-12T07:18:18;3.80;99.90
34099;DHT22;20374;49.474;10.944;2023-02-12T07:20:43;3.80;99.90
34099;DHT22;20374;49.474;10.944;2023-02-12T07:23:12;3.80;99.90
34099;DHT22;20374;49.474;10.944;2023-02-12T07:25:38;3.90;99.90
34099;DHT22;20374;49.474;10.944;2023-02-12T07:28:04;3.90;99.90
34099;DHT22;20374;49.474;10.944;2023-02-12T07:30:30;3.90;99.90
34099;DHT22;20374;49.474;10.944;2023-02-12T07:32:56;3.90;99.90
34099;DHT22;20374;49.474;10.944;2023-02-12T07:35:22;3.90;99.90
34099;DHT22;20374;49.474;10.944;2023-02-12T07:37:48;4.00;99.90
34099;DHT22;20374;49.474;10.944;2023-02-12T07:40:14;4.00;99.90
34099;DHT22;20374;49.474;10.944;2023-02-12T07:42:40;3.90;99.90
34099;DHT22;20374;49.474;10.944;2023-02-12T07:45:08;4.10;99.90
34099;DHT22;20374;49.474;10.944;2023-02-12T07:47:34;4.10;99.90
34099;DHT22;20374;49.474;10.944;2023-02-12T07:50:03;4.20;99.90
34099;DHT22;20374;49.474;10.944;2023-02-12T07:52:29;4.20;99.90
34099;DHT22;20374;49.474;10.944;2023-02-12T07:54:55;4.30;99.90
34099;DHT22;20374;49.474;10.944;2023-02-12T07:57:21;4.30;99.90
34099;DHT22;20374;49.474;10.944;2023-02-12T07:59:47;4.40;99.90
34099;DHT22;20374;49.474;10.944;2023-02-12T08:02:13;4.40;99.90
34099;DHT22;20374;49.474;10.944;2023-02-12T08:04:39;4.30;99.90
34099;DHT22;20374;49.474;10.944;2023-02-12T08:07:05;4.50;99.90
34099;DHT22;20374;49.474;10.944;2023-02-12T08:09:31;4.60;99.90
34099;DHT22;20374;49.474;10.944;2023-02-12T08:11:57;4.70;99.90
34099;DHT22;20374;49.474;10.944;2023-02-12T08:14:25;4.80;99.90
34099;DHT22;20374;49.474;10.944;2023-02-12T08:16:51;4.80;99.90
34099;DHT22;20374;49.474;10.944;2023-02-12T08:19:17;4.90;99.90
34099;DHT22;20374;49.474;10.944;2023-02-12T08:21:43;4.90;99.90
34099;DHT22;20374;49.474;10.944;2023-02-12T08:24:10;5.00;99.90
34099;DHT22;20374;49.474;10.944;2023-02-12T08:26:38;5.00;99.90
34099;DHT22;20374;49.474;10.944;2023-02-12T08:29:09;5.10;99.90
34099;DHT22;20374;49.474;10.944;2023-02-12T08:31:40;5.10;99.90
34099;DHT22;20374;49.474;10.944;2023-02-12T08:34:10;5.10;99.90
34099;DHT22;20374;49.474;10.944;2023-02-12T08:36:39;5.20;99.90
34099;DHT22;20374;49.474;10.944;2023-02-12T08:39:07;5.30;99.90
34099;DHT22;20374;49.474;10.944;2023-02-12T08:41:33;5.40;99.90
34099;DHT22;20374;49.474;10.944;2023-02-12T08:44:01;5.50;99.90
34099;DHT22;20374;49.474;10.944;2023-02-12T08:46:29;5.50;99.90
34099;DHT22;20374;49.474;10.944;2023-02-12T08:49:04;5.60;99.90
34099;DHT22;20374;49.474;10.944;2023-02-12T08:51:32;5.70;99.90
34099;DHT22;20374;49.474;10.944;2023-02-12T08:54:02;5.70;99.90
34099;DHT22;20374;49.474;10.944;2023-02-12T08:56:30;5.60;99.90
34099;DHT22;20374;49.474;10.944;2023-02-12T08:58:58;5.60;99.90
34099;DHT22;20374;49.474;10.944;2023-02-12T09:01:26;5.60;99.90
34099;DHT22;20374;49.474;10.944;2023-02-12T09:03:53;5.60;99.90
34099;DHT22;20374;49.474;10.944;2023-02-12T09:06:22;5.60;99.90
34099;DHT22;20374;49.474;10.944;2023-02-12T09:08:49;5.70;99.90
34099;DHT22;20374;49.474;10.944;2023-02-12T09:11:21;5.80;99.90
34099;DHT22;20374;49.474;10.944;2023-02-12T09:13:57;5.70;99.90
34099;DHT22;20374;49.474;10.944;2023-02-12T09:16:24;6.00;99.90
34099;DHT22;20374;49.474;10.944;2023-02-12T09:18:50;6.00;99.90
34099;DHT22;20374;49.474;10.944;2023-02-12T09:21:16;6.10;99.90
34099;DHT22;20374;49.474;10.944;2023-02-12T09:23:43;6.30;99.90
34099;DHT22;20374;49.474;10.944;2023-02-12T09:26:12;6.30;99.90
34099;DHT22;20374;49.474;10.944;2023-02-12T09:28:40;6.30;99.90
34099;DHT22;20374;49.474;10.944;2023-02-12T09:31:08;6.30;99.90
34099;DHT22;20374;49.474;10.944;2023-02-12T09:33:34;6.30;99.90
34099;DHT22;20374;49.474;10.944;2023-02-12T09:36:05;6.30;99.90
34099;DHT22;20374;49.474;10.944;2023-02-12T09:38:32;6.40;99.90
34099;DHT22;20374;49.474;10.944;2023-02-12T09:51:39;6.70;99.90
34099;DHT22;20374;49.474;10.944;2023-02-12T09:54:17;6.80;99.90
34099;DHT22;20374;49.474;10.944;2023-02-12T09:56:47;6.80;99.90
34099;DHT22;20374;49.474;10.944;2023-02-12T09:59:32;6.70;99.90
34099;DHT22;20374;49.474;10.944;2023-02-12T10:01:58;6.80;99.90
34099;DHT22;20374;49.474;10.944;2023-02-12T10:04:25;6.70;99.90
34099;DHT22;20374;49.474;10.944;2023-02-12T10:10:01;6.80;99.90
34099;DHT22;20374;49.474;10.944;2023-02-12T10:12:55;7.00;99.90
34099;DHT22;20374;49.474;10.944;2023-02-12T10:25:43;7.20;99.90
34099;DHT22;20374;49.474;10.944;2023-02-12T10:28:21;7.30;99.90
34099;DHT22;20374;49.474;10.944;2023-02-12T10:33:40;7.70;99.90
34099;DHT22;20374;49.474;10.944;2023-02-12T10:39:00;8.00;99.90
34099;DHT22;20374;49.474;10.944;2023-02-12T10:41:28;8.00;99.90
34099;DHT22;20374;49.474;10.944;2023-02-12T10:43:56;8.00;99.90
34099;DHT22;20374;49.474;10.944;2023-02-12T10:46:22;7.90;99.90
34099;DHT22;20374;49.474;10.944;2023-02-12T10:48:52;7.70;99.90
34099;DHT22;20374;49.474;10.944;2023-02-12T10:53:55;7.40;99.90
34099;DHT22;20374;49.474;10.944;2023-02-12T10:56:21;7.30;99.90
34099;DHT22;20374;49.474;10.944;2023-02-12T11:03:54;7.10;99.90
34099;DHT22;20374;49.474;10.944;2023-02-12T11:06:31;7.10;99.90
34099;DHT22;20374;49.474;10.944;2023-02-12T11:08:58;7.10;99.90
34099;DHT22;20374;49.474;10.944;2023-02-12T11:11:28;7.20;99.90
34099;DHT22;20374;49.474;10.944;2023-02-12T11:14:05;7.30;99.90
34099;DHT22;20374;49.474;10.944;2023-02-12T11:16:33;7.40;99.90
34099;DHT22;20374;49.474;10.944;2023-02-12T11:19:06;7.30;99.90
34099;DHT22;20374;49.474;10.944;2023-02-12T11:21:33;7.40;99.90
34099;DHT22;20374;49.474;10.944;2023-02-12T11:26:50;7.50;99.90
34099;DHT22;20374;49.474;10.944;2023-02-12T11:29:25;7.50;99.90
34099;DHT22;20374;49.474;10.944;2023-02-12T11:32:06;7.40;99.90
34099;DHT22;20374;49.474;10.944;2023-02-12T11:34:37;7.40;99.90
34099;DHT22;20374;49.474;10.944;2023-02-12T11:37:03;7.30;99.90
34099;DHT22;20374;49.474;10.944;2023-02-12T11:42:02;7.30;99.90
34099;DHT22;20374;49.474;10.944;2023-02-12T11:44:36;7.30;99.90
34099;DHT22;20374;49.474;10.944;2023-02-12T11:47:17;7.20;99.90
34099;DHT22;20374;49.474;10.944;2023-02-12T11:49:53;7.20;99.90
34099;DHT22;20374;49.474;10.944;2023-02-12T11:52:23;7.10;99.90
34099;DHT22;20374;49.474;10.944;2023-02-12T11:54:51;7.20;99.90
34099;DHT22;20374;49.474;10.944;2023-02-12T11:57:47;7.20;99.90
34099;DHT22;20374;49.474;10.944;2023-02-12T12:03:00;7.20;99.90
34099;DHT22;20374;49.474;10.944;2023-02-12T12:05:35;7.20;99.90
34099;DHT22;20374;49.474;10.944;2023-02-12T12:08:11;7.20;99.90
34099;DHT22;20374;49.474;10.944;2023-02-12T12:10:45;7.20;99.90
34099;DHT22;20374;49.474;10.944;2023-02-12T12:13:27;7.20;99.90
34099;DHT22;20374;49.474;10.944;2023-02-12T12:19:21;7.40;99.90
34099;DHT22;20374;49.474;10.944;2023-02-12T12:22:22;7.10;99.90
34099;DHT22;20374;49.474;10.944;2023-02-12T12:24:59;7.10;99.90
34099;DHT22;20374;49.474;10.944;2023-02-12T12:33:00;7.40;99.90
34099;DHT22;20374;49.474;10.944;2023-02-12T12:41:39;7.30;99.90
34099;DHT22;20374;49.474;10.944;2023-02-12T12:44:31;7.20;99.90
34099;DHT22;20374;49.474;10.944;2023-02-12T12:47:27;7.20;99.90
34099;DHT22;20374;49.474;10.944;2023-02-12T12:53:14;7.70;99.90
34099;DHT22;20374;49.474;10.944;2023-02-12T13:06:38;7.90;99.90
34099;DHT22;20374;49.474;10.944;2023-02-12T13:09:22;8.00;99.90
34099;DHT22;20374;49.474;10.944;2023-02-12T13:17:25;8.50;99.90
34099;DHT22;20374;49.474;10.944;2023-02-12T13:20:24;8.50;99.90
34099;DHT22;20374;49.474;10.944;2023-02-12T13:23:15;8.60;99.90
34099;DHT22;20374;49.474;10.944;2023-02-12T13:28:46;8.40;99.90
34099;DHT22;20374;49.474;10.944;2023-02-12T13:31:17;8.30;99.90
34099;DHT22;20374;49.474;10.944;2023-02-12T13:33:50;8.40;99.90
34099;DHT22;20374;49.474;10.944;2023-02-12T13:36:17;8.30;99.90
34099;DHT22;20374;49.474;10.944;2023-02-12T13:39:15;8.50;99.90
34099;DHT22;20374;49.474;10.944;2023-02-12T13:41:53;8.60;99.90
34099;DHT22;20374;49.474;10.944;2023-02-12T13:44:30;8.50;99.90
34099;DHT22;20374;49.474;10.944;2023-02-12T13:52:35;8.70;99.90
34099;DHT22;20374;49.474;10.944;2023-02-12T14:03:30;8.70;99.90
34099;DHT22;20374;49.474;10.944;2023-02-12T14:06:20;8.60;99.90
34099;DHT22;20374;49.474;10.944;2023-02-12T14:08:52;8.60;99.90
34099;DHT22;20374;49.474;10.944;2023-02-12T14:11:25;8.40;99.90
34099;DHT22;20374;49.474;10.944;2023-02-12T14:13:53;8.40;99.90
34099;DHT22;20374;49.474;10.944;2023-02-12T14:16:33;8.30;99.90
34099;DHT22;20374;49.474;10.944;2023-02-12T14:24:56;8.00;99.90
34099;DHT22;20374;49.474;10.944;2023-02-12T14:27:44;7.90;99.90
34099;DHT22;20374;49.474;10.944;2023-02-12T14:37:57;7.50;99.90
34099;DHT22;20374;49.474;10.944;2023-02-12T14:40:45;7.50;99.90
34099;DHT22;20374;49.474;10.944;2023-02-12T14:48:53;7.50;99.90
34099;DHT22;20374;49.474;10.944;2023-02-12T14:54:31;7.60;99.90
34099;DHT22;20374;49.474;10.944;2023-02-12T14:59:47;7.90;99.90
34099;DHT22;20374;49.474;10.944;2023-02-12T15:02:27;7.80;99.90
34099;DHT22;20374;49.474;10.944;2023-02-12T15:05:02;7.80;99.90
34099;DHT22;20374;49.474;10.944;2023-02-12T15:07:40;7.90;99.90
34099;DHT22;20374;49.474;10.944;2023-02-12T15:10:21;7.80;99.90
34099;DHT22;20374;49.474;10.944;2023-02-12T15:16:03;7.90;99.90
34099;DHT22;20374;49.474;10.944;2023-02-12T15:18:51;7.90;99.90
34099;DHT22;20374;49.474;10.944;2023-02-12T15:21:26;7.90;99.90
34099;DHT22;20374;49.474;10.944;2023-02-12T15:26:47;7.60;99.90
34099;DHT22;20374;49.474;10.944;2023-02-12T15:29:32;7.50;99.90
34099;DHT22;20374;49.474;10.944;2023-02-12T15:32:04;7.50;99.90
34099;DHT22;20374;49.474;10.944;2023-02-12T15:34:33;7.50;99.90
34099;DHT22;20374;49.474;10.944;2023-02-12T15:37:03;7.40;99.90
34099;DHT22;20374;49.474;10.944;2023-02-12T15:39:45;7.30;99.90
34099;DHT22;20374;49.474;10.944;2023-02-12T15:42:34;7.20;99.90
34099;DHT22;20374;49.474;10.944;2023-02-12T15:47:44;7.30;99.90
34099;DHT22;20374;49.474;10.944;2023-02-12T15:50:16;7.10;99.90
34099;DHT22;20374;49.474;10.944;2023-02-12T15:52:44;7.00;99.90
34099;DHT22;20374;49.474;10.944;2023-02-12T15:55:16;6.80;99.90
34099;DHT22;20374;49.474;10.944;2023-02-12T15:57:48;6.60;99.90
34099;DHT22;20374;49.474;10.944;2023-02-12T16:00:39;6.50;99.90
34099;DHT22;20374;49.474;10.944;2023-02-12T16:03:22;6.30;99.90
34099;DHT22;20374;49.474;10.944;2023-02-12T16:05:49;6.20;99.90
34099;DHT22;20374;49.474;10.944;2023-02-12T16:08:18;6.10;99.90
34099;DHT22;20374;49.474;10.944;2023-02-12T16:10:47;6.00;99.90
34099;DHT22;20374;49.474;10.944;2023-02-12T16:18:39;5.50;99.90
34099;DHT22;20374;49.474;10.944;2023-02-12T16:21:11;5.40;99.90
34099;DHT22;20374;49.474;10.944;2023-02-12T16:23:42;5.20;99.90
34099;DHT22;20374;49.474;10.944;2023-02-12T16:26:14;5.10;99.90
34099;DHT22;20374;49.474;10.944;2023-02-12T16:28:47;5.00;99.90
34099;DHT22;20374;49.474;10.944;2023-02-12T16:31:15;4.90;99.90
34099;DHT22;20374;49.474;10.944;2023-02-12T16:33:47;4.90;99.90
34099;DHT22;20374;49.474;10.944;2023-02-12T16:39:03;4.60;99.90
34099;DHT22;20374;49.474;10.944;2023-02-12T16:41:34;4.50;99.90
34099;DHT22;20374;49.474;10.944;2023-02-12T16:46:53;4.30;99.90
34099;DHT22;20374;49.474;10.944;2023-02-12T16:49:22;4.20;99.90
34099;DHT22;20374;49.474;10.944;2023-02-12T16:51:49;4.10;99.90
34099;DHT22;20374;49.474;10.944;2023-02-12T16:54:30;4.00;99.90
34099;DHT22;20374;49.474;10.944;2023-02-12T16:56:57;3.90;99.90
34099;DHT22;20374;49.474;10.944;2023-02-12T16:59:24;3.80;99.90
34099;DHT22;20374;49.474;10.944;2023-02-12T17:04:25;3.70;99.90
34099;DHT22;20374;49.474;10.944;2023-02-12T17:06:51;3.60;99.90
34099;DHT22;20374;49.474;10.944;2023-02-12T17:09:17;3.60;99.90
34099;DHT22;20374;49.474;10.944;2023-02-12T17:11:43;3.50;99.90
34099;DHT22;20374;49.474;10.944;2023-02-12T17:14:16;3.30;99.90
34099;DHT22;20374;49.474;10.944;2023-02-12T17:16:43;3.30;99.90
34099;DHT22;20374;49.474;10.944;2023-02-12T17:19:09;3.20;99.90
34099;DHT22;20374;49.474;10.944;2023-02-12T17:21:38;3.20;99.90
34099;DHT22;20374;49.474;10.944;2023-02-12T17:24:06;3.20;99.90
34099;DHT22;20374;49.474;10.944;2023-02-12T17:26:32;3.20;99.90
34099;DHT22;20374;49.474;10.944;2023-02-12T17:28:58;3.20;99.90
34099;DHT22;20374;49.474;10.944;2023-02-12T17:31:34;3.20;99.90
34099;DHT22;20374;49.474;10.944;2023-02-12T17:34:01;3.20;99.90
34099;DHT22;20374;49.474;10.944;2023-02-12T17:36:27;3.10;99.90
34099;DHT22;20374;49.474;10.944;2023-02-12T17:38:53;3.10;99.90
34099;DHT22;20374;49.474;10.944;2023-02-12T17:41:19;3.00;99.90
34099;DHT22;20374;49.474;10.944;2023-02-12T17:43:45;3.00;99.90
34099;DHT22;20374;49.474;10.944;2023-02-12T17:46:16;2.90;99.90
34099;DHT22;20374;49.474;10.944;2023-02-12T17:48:42;2.80;99.90
34099;DHT22;20374;49.474;10.944;2023-02-12T17:51:09;2.60;99.90
34099;DHT22;20374;49.474;10.944;2023-02-12T17:53:37;2.60;99.90
34099;DHT22;20374;49.474;10.944;2023-02-12T17:56:03;2.50;99.90
34099;DHT22;20374;49.474;10.944;2023-02-12T17:58:29;2.50;99.90
34099;DHT22;20374;49.474;10.944;2023-02-12T18:00:56;2.40;99.90
34099;DHT22;20374;49.474;10.944;2023-02-12T18:03:22;2.40;99.90
34099;DHT22;20374;49.474;10.944;2023-02-12T18:05:48;2.40;99.90
34099;DHT22;20374;49.474;10.944;2023-02-12T18:08:13;2.40;99.90
34099;DHT22;20374;49.474;10.944;2023-02-12T18:10:43;2.50;99.90
34099;DHT22;20374;49.474;10.944;2023-02-12T18:13:10;2.50;99.90
34099;DHT22;20374;49.474;10.944;2023-02-12T18:15:38;2.50;99.90
34099;DHT22;20374;49.474;10.944;2023-02-12T18:18:04;2.60;99.90
34099;DHT22;20374;49.474;10.944;2023-02-12T18:20:30;2.50;99.90
34099;DHT22;20374;49.474;10.944;2023-02-12T18:22:56;2.60;99.90
34099;DHT22;20374;49.474;10.944;2023-02-12T18:25:22;2.70;99.90
34099;DHT22;20374;49.474;10.944;2023-02-12T18:27:48;2.90;99.90
34099;DHT22;20374;49.474;10.944;2023-02-12T18:30:15;3.00;99.90
34099;DHT22;20374;49.474;10.944;2023-02-12T18:32:40;3.00;99.90
34099;DHT22;20374;49.474;10.944;2023-02-12T18:35:08;3.20;99.90
34099;DHT22;20374;49.474;10.944;2023-02-12T18:37:34;3.20;99.90
34099;DHT22;20374;49.474;10.944;2023-02-12T18:40:00;3.30;99.90
34099;DHT22;20374;49.474;10.944;2023-02-12T18:42:26;3.30;99.90
34099;DHT22;20374;49.474;10.944;2023-02-12T18:44:57;3.40;99.90
34099;DHT22;20374;49.474;10.944;2023-02-12T18:47:23;3.40;99.90
34099;DHT22;20374;49.474;10.944;2023-02-12T18:49:49;3.30;99.90
34099;DHT22;20374;49.474;10.944;2023-02-12T18:52:15;3.30;99.90
34099;DHT22;20374;49.474;10.944;2023-02-12T18:54:41;3.30;99.90
34099;DHT22;20374;49.474;10.944;2023-02-12T18:57:09;3.40;99.90
34099;DHT22;20374;49.474;10.944;2023-02-12T18:59:35;3.40;99.90